sensor_id;sensor_type;location;lat;lon;timestamp;noise_LAeq;noise_LA_min;noise_LA_max;noise_LA01;noise_LA95
53702;Laerm;39594;52.194;9.886;2023-02-01T00:00:58;42.65;37.88;59.42;;
53702;Laerm;39594;52.194;9.886;2023-02-01T00:03:23;46.03;39.58;62.93;;
53702;Laerm;39594;52.194;9.886;2023-02-01T00:05:59;46.87;38.05;70.24;;
53702;Laerm;39594;52.194;9.886;2023-02-01T00:08:24;47.19;35.66;62.32;;
53702;Laerm;39594;52.194;9.886;2023-02-01T00:10:57;44.16;35.36;62.80;;
53702;Laerm;39594;52.194;9.886;2023-02-01T00:13:34;50.47;36.45;69.04;;
53702;Laerm;39594;52.194;9.886;2023-02-01T00:16:04;44.81;37.52;63.55;;
53702;Laerm;39594;52.194;9.886;2023-02-01T00:18:29;60.22;35.94;79.53;;
53702;Laerm;39594;52.194;9.886;2023-02-01T00:20:55;59.22;36.69;77.76;;
53702;Laerm;39594;52.194;9.886;2023-02-01T00:23:20;48.80;40.62;71.72;;
53702;Laerm;39594;52.194;9.886;2023-02-01T00:25:45;46.04;36.45;66.79;;
53702;Laerm;39594;52.194;9.886;2023-02-01T00:28:10;45.15;38.81;61.61;;
53702;Laerm;39594;52.194;9.886;2023-02-01T00:30:46;48.47;39.46;67.05;;
53702;Laerm;39594;52.194;9.886;2023-02-01T00:33:12;49.19;37.70;67.94;;
53702;Laerm;39594;52.194;9.886;2023-02-01T00:35:37;56.28;38.37;75.03;;
53702;Laerm;39594;52.194;9.886;2023-02-01T00:38:02;48.86;38.95;68.84;;
53702;Laerm;39594;52.194;9.886;2023-02-01T00:40:28;55.52;39.34;71.64;;
53702;Laerm;39594;52.194;9.886;2023-02-01T00:42:53;45.54;38.52;64.77;;
53702;Laerm;39594;52.194;9.886;2023-02-01T00:45:19;50.81;38.21;68.37;;
53702;Laerm;39594;52.194;9.886;2023-02-01T00:47:44;45.67;38.05;66.16;;
53702;Laerm;39594;52.194;9.886;2023-02-01T00:50:13;43.88;38.21;57.99;;
53702;Laerm;39594;52.194;9.886;2023-02-01T00:52:38;53.28;38.37;70.76;;
53702;Laerm;39594;52.194;9.886;2023-02-01T00:55:03;51.06;39.08;70.03;;
53702;Laerm;39594;52.194;9.886;2023-02-01T00:57:28;49.92;39.58;70.33;;
53702;Laerm;39594;52.194;9.886;2023-02-01T00:59:54;47.96;40.03;67.96;;
53702;Laerm;39594;52.194;9.886;2023-02-01T01:02:22;45.63;39.81;64.66;;
53702;Laerm;39594;52.194;9.886;2023-02-01T01:04:47;45.85;39.58;65.03;;
53702;Laerm;39594;52.194;9.886;2023-02-01T01:07:12;45.16;38.52;63.06;;
53702;Laerm;39594;52.194;9.886;2023-02-01T01:09:38;46.41;38.67;62.83;;
53702;Laerm;39594;52.194;9.886;2023-02-01T01:12:03;45.07;38.37;69.02;;
53702;Laerm;39594;52.194;9.886;2023-02-01T01:14:29;60.15;38.21;78.02;;
53702;Laerm;39594;52.194;9.886;2023-02-01T01:16:54;44.30;38.67;60.65;;
53702;Laerm;39594;52.194;9.886;2023-02-01T01:19:20;57.67;39.34;79.07;;
53702;Laerm;39594;52.194;9.886;2023-02-01T01:21:48;46.97;39.70;63.32;;
53702;Laerm;39594;52.194;9.886;2023-02-01T01:24:13;44.27;39.21;60.16;;
53702;Laerm;39594;52.194;9.886;2023-02-01T01:26:38;52.09;40.23;75.87;;
53702;Laerm;39594;52.194;9.886;2023-02-01T01:29:04;52.55;39.46;68.82;;
53702;Laerm;39594;52.194;9.886;2023-02-01T01:31:29;55.18;38.95;73.18;;
53702;Laerm;39594;52.194;9.886;2023-02-01T01:33:55;42.96;37.52;56.62;;
53702;Laerm;39594;52.194;9.886;2023-02-01T01:36:21;45.36;39.21;63.87;;
53702;Laerm;39594;52.194;9.886;2023-02-01T01:38:47;43.64;37.32;64.18;;
53702;Laerm;39594;52.194;9.886;2023-02-01T01:41:16;43.75;38.67;58.15;;
53702;Laerm;39594;52.194;9.886;2023-02-01T01:43:47;47.80;37.70;66.02;;
53702;Laerm;39594;52.194;9.886;2023-02-01T01:46:37;44.14;37.12;65.08;;
53702;Laerm;39594;52.194;9.886;2023-02-01T01:49:07;46.43;36.69;66.16;;
53702;Laerm;39594;52.194;9.886;2023-02-01T01:51:35;45.06;38.81;59.63;;
53702;Laerm;39594;52.194;9.886;2023-02-01T01:54:04;48.96;37.70;69.73;;
53702;Laerm;39594;52.194;9.886;2023-02-01T01:56:30;44.49;37.88;59.87;;
53702;Laerm;39594;52.194;9.886;2023-02-01T01:58:57;60.59;37.32;79.54;;
53702;Laerm;39594;52.194;9.886;2023-02-01T02:01:39;44.53;38.81;68.74;;
53702;Laerm;39594;52.194;9.886;2023-02-01T02:04:13;57.68;39.46;75.16;;
53702;Laerm;39594;52.194;9.886;2023-02-01T02:06:45;44.34;37.70;60.26;;
53702;Laerm;39594;52.194;9.886;2023-02-01T02:09:15;43.04;37.88;57.79;;
53702;Laerm;39594;52.194;9.886;2023-02-01T02:11:41;44.64;37.52;59.70;;
53702;Laerm;39594;52.194;9.886;2023-02-01T02:14:09;46.68;39.21;68.47;;
53702;Laerm;39594;52.194;9.886;2023-02-01T02:16:41;52.34;37.52;70.17;;
53702;Laerm;39594;52.194;9.886;2023-02-01T02:34:55;45.95;36.91;65.19;;
53702;Laerm;39594;52.194;9.886;2023-02-01T02:40:11;46.60;37.32;68.92;;
53702;Laerm;39594;52.194;9.886;2023-02-01T02:42:43;45.24;38.21;67.09;;
53702;Laerm;39594;52.194;9.886;2023-02-01T02:49:05;61.09;36.45;79.10;;
53702;Laerm;39594;52.194;9.886;2023-02-01T02:51:35;51.67;39.81;70.97;;
53702;Laerm;39594;52.194;9.886;2023-02-01T02:54:26;54.86;39.34;74.49;;
53702;Laerm;39594;52.194;9.886;2023-02-01T02:57:26;45.27;38.21;63.17;;
53702;Laerm;39594;52.194;9.886;2023-02-01T03:00:16;51.82;39.21;69.62;;
53702;Laerm;39594;52.194;9.886;2023-02-01T03:03:01;52.46;38.95;71.77;;
53702;Laerm;39594;52.194;9.886;2023-02-01T03:05:46;45.52;38.05;67.58;;
53702;Laerm;39594;52.194;9.886;2023-02-01T03:08:17;46.79;38.52;67.84;;
53702;Laerm;39594;52.194;9.886;2023-02-01T03:13:32;53.51;38.52;70.81;;
53702;Laerm;39594;52.194;9.886;2023-02-01T03:16:07;55.54;38.52;69.98;;
53702;Laerm;39594;52.194;9.886;2023-02-01T03:21:26;52.49;39.34;70.30;;
53702;Laerm;39594;52.194;9.886;2023-02-01T03:24:12;55.02;40.03;73.71;;
53702;Laerm;39594;52.194;9.886;2023-02-01T03:26:44;49.45;38.81;70.48;;
53702;Laerm;39594;52.194;9.886;2023-02-01T03:29:16;52.75;39.58;71.60;;
53702;Laerm;39594;52.194;9.886;2023-02-01T03:31:42;54.26;39.46;70.55;;
53702;Laerm;39594;52.194;9.886;2023-02-01T03:34:08;51.35;39.70;70.85;;
53702;Laerm;39594;52.194;9.886;2023-02-01T03:36:38;56.84;40.43;72.89;;
53702;Laerm;39594;52.194;9.886;2023-02-01T03:39:11;59.55;40.89;77.99;;
53702;Laerm;39594;52.194;9.886;2023-02-01T03:44:16;50.22;39.08;68.44;;
53702;Laerm;39594;52.194;9.886;2023-02-01T03:46:55;54.11;38.67;71.89;;
53702;Laerm;39594;52.194;9.886;2023-02-01T03:49:30;57.41;39.21;74.14;;
53702;Laerm;39594;52.194;9.886;2023-02-01T03:51:58;60.75;39.34;78.26;;
53702;Laerm;39594;52.194;9.886;2023-02-01T03:54:28;50.11;40.13;69.09;;
53702;Laerm;39594;52.194;9.886;2023-02-01T03:56:57;49.68;38.67;73.30;;
53702;Laerm;39594;52.194;9.886;2023-02-01T03:59:24;54.93;42.22;71.61;;
53702;Laerm;39594;52.194;9.886;2023-02-01T04:01:50;64.11;39.46;81.69;;
53702;Laerm;39594;52.194;9.886;2023-02-01T04:04:15;64.59;39.70;80.38;;
53702;Laerm;39594;52.194;9.886;2023-02-01T04:06:49;61.78;39.34;77.93;;
53702;Laerm;39594;52.194;9.886;2023-02-01T04:09:15;56.71;36.45;72.88;;
53702;Laerm;39594;52.194;9.886;2023-02-01T04:11:40;59.66;40.03;73.12;;
53702;Laerm;39594;52.194;9.886;2023-02-01T04:14:06;62.62;40.23;75.22;;
53702;Laerm;39594;52.194;9.886;2023-02-01T04:16:32;64.06;38.81;78.43;;
53702;Laerm;39594;52.194;9.886;2023-02-01T04:18:57;62.30;40.53;76.65;;
53702;Laerm;39594;52.194;9.886;2023-02-01T04:21:25;60.27;40.80;72.65;;
53702;Laerm;39594;52.194;9.886;2023-02-01T04:23:51;63.88;39.34;82.02;;
53702;Laerm;39594;52.194;9.886;2023-02-01T04:26:16;64.06;43.39;76.00;;
53702;Laerm;39594;52.194;9.886;2023-02-01T04:28:42;64.28;41.82;75.16;;
53702;Laerm;39594;52.194;9.886;2023-02-01T04:31:07;61.39;40.13;75.33;;
53702;Laerm;39594;52.194;9.886;2023-02-01T04:33:32;61.70;40.23;73.84;;
53702;Laerm;39594;52.194;9.886;2023-02-01T04:36:00;60.31;41.61;73.35;;
53702;Laerm;39594;52.194;9.886;2023-02-01T04:38:29;64.67;43.81;75.29;;
53702;Laerm;39594;52.194;9.886;2023-02-01T04:40:54;65.72;44.07;77.53;;
53702;Laerm;39594;52.194;9.886;2023-02-01T04:43:19;64.76;41.22;80.38;;
53702;Laerm;39594;52.194;9.886;2023-02-01T04:45:48;63.59;40.71;74.57;;
53702;Laerm;39594;52.194;9.886;2023-02-01T04:48:14;55.92;41.75;73.54;;
53702;Laerm;39594;52.194;9.886;2023-02-01T04:50:39;59.17;41.30;71.75;;
53702;Laerm;39594;52.194;9.886;2023-02-01T04:53:05;66.04;41.68;78.59;;
53702;Laerm;39594;52.194;9.886;2023-02-01T04:55:30;62.19;38.21;76.23;;
53702;Laerm;39594;52.194;9.886;2023-02-01T04:57:55;60.70;39.58;74.23;;
53702;Laerm;39594;52.194;9.886;2023-02-01T05:00:21;59.68;39.58;76.40;;
53702;Laerm;39594;52.194;9.886;2023-02-01T05:02:46;64.09;42.53;78.36;;
53702;Laerm;39594;52.194;9.886;2023-02-01T05:05:12;65.62;42.82;81.19;;
53702;Laerm;39594;52.194;9.886;2023-02-01T05:07:37;60.88;44.35;76.81;;
53702;Laerm;39594;52.194;9.886;2023-02-01T05:10:02;67.91;43.58;80.55;;
53702;Laerm;39594;52.194;9.886;2023-02-01T05:12:28;66.75;44.94;80.04;;
53702;Laerm;39594;52.194;9.886;2023-02-01T05:15:12;67.97;44.83;79.39;;
53702;Laerm;39594;52.194;9.886;2023-02-01T05:17:37;64.87;42.41;77.38;;
53702;Laerm;39594;52.194;9.886;2023-02-01T05:20:05;63.63;44.62;75.88;;
53702;Laerm;39594;52.194;9.886;2023-02-01T05:22:31;65.21;42.22;79.80;;
53702;Laerm;39594;52.194;9.886;2023-02-01T05:24:56;61.35;42.35;74.41;;
53702;Laerm;39594;52.194;9.886;2023-02-01T05:27:21;65.46;44.27;78.26;;
53702;Laerm;39594;52.194;9.886;2023-02-01T05:29:49;64.56;43.14;79.95;;
53702;Laerm;39594;52.194;9.886;2023-02-01T05:32:15;65.95;45.04;82.51;;
53702;Laerm;39594;52.194;9.886;2023-02-01T05:34:43;65.66;44.54;75.77;;
53702;Laerm;39594;52.194;9.886;2023-02-01T05:37:09;68.43;47.48;80.21;;
53702;Laerm;39594;52.194;9.886;2023-02-01T05:39:40;66.78;48.32;77.71;;
53702;Laerm;39594;52.194;9.886;2023-02-01T05:42:05;67.45;45.39;81.23;;
53702;Laerm;39594;52.194;9.886;2023-02-01T05:44:33;64.84;44.62;73.71;;
53702;Laerm;39594;52.194;9.886;2023-02-01T05:47:05;64.84;42.47;74.71;;
53702;Laerm;39594;52.194;9.886;2023-02-01T05:49:34;63.93;43.68;78.19;;
53702;Laerm;39594;52.194;9.886;2023-02-01T05:51:59;65.48;42.71;77.99;;
53702;Laerm;39594;52.194;9.886;2023-02-01T05:54:24;65.96;45.23;76.54;;
53702;Laerm;39594;52.194;9.886;2023-02-01T05:56:50;66.15;44.65;77.89;;
53702;Laerm;39594;52.194;9.886;2023-02-01T05:59:15;67.76;46.76;79.90;;
53702;Laerm;39594;52.194;9.886;2023-02-01T06:01:40;69.70;47.68;81.47;;
53702;Laerm;39594;52.194;9.886;2023-02-01T06:04:09;64.77;44.47;77.26;;
53702;Laerm;39594;52.194;9.886;2023-02-01T06:09:06;66.00;47.95;75.18;;
53702;Laerm;39594;52.194;9.886;2023-02-01T06:11:32;66.36;47.65;84.14;;
53702;Laerm;39594;52.194;9.886;2023-02-01T06:13:57;65.14;44.11;73.75;;
53702;Laerm;39594;52.194;9.886;2023-02-01T06:16:22;66.60;49.85;76.73;;
53702;Laerm;39594;52.194;9.886;2023-02-01T06:18:48;66.98;50.73;78.61;;
53702;Laerm;39594;52.194;9.886;2023-02-01T06:21:13;67.65;47.32;79.73;;
53702;Laerm;39594;52.194;9.886;2023-02-01T06:23:40;67.75;47.76;78.66;;
53702;Laerm;39594;52.194;9.886;2023-02-01T06:26:06;67.19;46.07;80.68;;
53702;Laerm;39594;52.194;9.886;2023-02-01T06:28:34;68.61;48.56;77.00;;
53702;Laerm;39594;52.194;9.886;2023-02-01T06:31:04;67.18;44.90;77.19;;
53702;Laerm;39594;52.194;9.886;2023-02-01T06:33:31;67.96;47.36;79.57;;
53702;Laerm;39594;52.194;9.886;2023-02-01T06:36:00;70.01;47.76;80.72;;
53702;Laerm;39594;52.194;9.886;2023-02-01T06:38:25;65.44;43.39;77.12;;
53702;Laerm;39594;52.194;9.886;2023-02-01T06:40:54;69.56;45.51;82.08;;
53702;Laerm;39594;52.194;9.886;2023-02-01T06:43:20;68.25;43.86;82.62;;
53702;Laerm;39594;52.194;9.886;2023-02-01T06:45:45;69.03;47.83;78.46;;
53702;Laerm;39594;52.194;9.886;2023-02-01T06:48:11;68.38;47.84;78.45;;
53702;Laerm;39594;52.194;9.886;2023-02-01T06:50:36;69.19;50.04;81.52;;
53702;Laerm;39594;52.194;9.886;2023-02-01T06:53:01;70.04;49.53;82.00;;
53702;Laerm;39594;52.194;9.886;2023-02-01T06:55:26;69.07;48.54;77.98;;
53702;Laerm;39594;52.194;9.886;2023-02-01T06:57:54;67.72;45.34;82.84;;
53702;Laerm;39594;52.194;9.886;2023-02-01T07:00:20;69.96;48.73;80.93;;
53702;Laerm;39594;52.194;9.886;2023-02-01T07:02:46;67.31;45.07;77.02;;
53702;Laerm;39594;52.194;9.886;2023-02-01T07:05:11;70.76;50.17;97.49;;
53702;Laerm;39594;52.194;9.886;2023-02-01T07:07:36;66.49;49.43;76.02;;
53702;Laerm;39594;52.194;9.886;2023-02-01T07:10:01;67.52;46.98;78.87;;
53702;Laerm;39594;52.194;9.886;2023-02-01T07:12:26;70.05;51.28;81.44;;
53702;Laerm;39594;52.194;9.886;2023-02-01T07:14:52;68.24;49.84;79.09;;
53702;Laerm;39594;52.194;9.886;2023-02-01T07:17:17;69.41;48.31;79.98;;
53702;Laerm;39594;52.194;9.886;2023-02-01T07:19:42;70.28;46.23;81.30;;
53702;Laerm;39594;52.194;9.886;2023-02-01T07:22:07;66.24;49.15;83.64;;
53702;Laerm;39594;52.194;9.886;2023-02-01T07:24:33;67.74;46.23;81.71;;
53702;Laerm;39594;52.194;9.886;2023-02-01T07:26:59;69.67;49.08;85.97;;
53702;Laerm;39594;52.194;9.886;2023-02-01T07:29:24;65.96;46.64;79.82;;
53702;Laerm;39594;52.194;9.886;2023-02-01T07:31:49;64.73;45.45;75.50;;
53702;Laerm;39594;52.194;9.886;2023-02-01T07:34:14;67.78;50.89;80.30;;
53702;Laerm;39594;52.194;9.886;2023-02-01T07:36:39;67.07;45.30;79.85;;
53702;Laerm;39594;52.194;9.886;2023-02-01T07:39:05;66.41;48.43;77.48;;
53702;Laerm;39594;52.194;9.886;2023-02-01T07:41:30;63.95;43.14;76.58;;
53702;Laerm;39594;52.194;9.886;2023-02-01T07:43:55;64.62;45.83;76.35;;
53702;Laerm;39594;52.194;9.886;2023-02-01T07:46:20;62.20;44.69;76.43;;
53702;Laerm;39594;52.194;9.886;2023-02-01T07:48:45;64.62;44.07;77.19;;
53702;Laerm;39594;52.194;9.886;2023-02-01T07:51:12;68.44;43.29;86.03;;
53702;Laerm;39594;52.194;9.886;2023-02-01T07:53:38;62.06;43.39;78.47;;
53702;Laerm;39594;52.194;9.886;2023-02-01T07:56:03;64.40;47.04;76.15;;
53702;Laerm;39594;52.194;9.886;2023-02-01T07:58:29;67.86;44.39;82.87;;
53702;Laerm;39594;52.194;9.886;2023-02-01T08:00:54;63.22;44.31;78.61;;
53702;Laerm;39594;52.194;9.886;2023-02-01T08:03:38;68.12;46.05;85.20;;
53702;Laerm;39594;52.194;9.886;2023-02-01T08:06:04;67.83;48.21;80.66;;
53702;Laerm;39594;52.194;9.886;2023-02-01T08:08:29;66.05;45.45;80.53;;
53702;Laerm;39594;52.194;9.886;2023-02-01T08:10:58;64.46;48.13;77.25;;
53702;Laerm;39594;52.194;9.886;2023-02-01T08:13:24;62.08;44.69;74.58;;
53702;Laerm;39594;52.194;9.886;2023-02-01T08:15:49;62.95;44.07;75.81;;
53702;Laerm;39594;52.194;9.886;2023-02-01T08:18:14;63.45;41.75;80.82;;
53702;Laerm;39594;52.194;9.886;2023-02-01T08:20:41;65.49;43.76;81.10;;
53702;Laerm;39594;52.194;9.886;2023-02-01T08:23:08;66.44;43.34;81.13;;
53702;Laerm;39594;52.194;9.886;2023-02-01T08:25:34;62.79;42.71;77.05;;
53702;Laerm;39594;52.194;9.886;2023-02-01T08:27:59;60.91;45.17;78.31;;
53702;Laerm;39594;52.194;9.886;2023-02-01T08:30:25;61.26;43.09;74.55;;
53702;Laerm;39594;52.194;9.886;2023-02-01T08:32:52;60.38;43.44;81.53;;
53702;Laerm;39594;52.194;9.886;2023-02-01T08:35:17;63.39;47.83;76.55;;
53702;Laerm;39594;52.194;9.886;2023-02-01T08:37:42;64.51;46.33;76.89;;
53702;Laerm;39594;52.194;9.886;2023-02-01T08:40:08;64.02;47.83;76.84;;
53702;Laerm;39594;52.194;9.886;2023-02-01T08:42:33;68.12;45.48;84.96;;
53702;Laerm;39594;52.194;9.886;2023-02-01T08:45:25;62.45;45.39;75.01;;
53702;Laerm;39594;52.194;9.886;2023-02-01T08:47:54;64.59;45.66;80.77;;
53702;Laerm;39594;52.194;9.886;2023-02-01T08:50:20;66.44;46.13;80.48;;
53702;Laerm;39594;52.194;9.886;2023-02-01T08:52:45;63.75;44.23;77.03;;
53702;Laerm;39594;52.194;9.886;2023-02-01T08:55:11;65.34;48.10;76.62;;
53702;Laerm;39594;52.194;9.886;2023-02-01T08:57:37;63.89;47.70;75.31;;
53702;Laerm;39594;52.194;9.886;2023-02-01T09:00:03;66.90;49.03;84.93;;
53702;Laerm;39594;52.194;9.886;2023-02-01T09:02:28;63.99;45.45;79.83;;
53702;Laerm;39594;52.194;9.886;2023-02-01T09:04:53;62.77;42.09;76.21;;
53702;Laerm;39594;52.194;9.886;2023-02-01T09:07:20;64.91;45.80;79.10;;
53702;Laerm;39594;52.194;9.886;2023-02-01T09:09:45;63.26;47.18;77.85;;
53702;Laerm;39594;52.194;9.886;2023-02-01T09:12:10;66.82;47.11;81.73;;
53702;Laerm;39594;52.194;9.886;2023-02-01T09:14:36;66.60;45.63;80.40;;
53702;Laerm;39594;52.194;9.886;2023-02-01T09:17:01;65.48;50.17;79.56;;
53702;Laerm;39594;52.194;9.886;2023-02-01T09:19:27;64.57;47.50;77.53;;
53702;Laerm;39594;52.194;9.886;2023-02-01T09:21:52;67.45;45.57;85.13;;
53702;Laerm;39594;52.194;9.886;2023-02-01T09:24:18;63.14;47.72;79.66;;
53702;Laerm;39594;52.194;9.886;2023-02-01T09:26:43;62.60;46.69;76.49;;
53702;Laerm;39594;52.194;9.886;2023-02-01T09:29:08;63.75;46.15;78.00;;
53702;Laerm;39594;52.194;9.886;2023-02-01T09:31:36;62.89;48.25;80.93;;
53702;Laerm;39594;52.194;9.886;2023-02-01T09:34:02;66.65;47.10;79.18;;
53702;Laerm;39594;52.194;9.886;2023-02-01T09:36:27;61.99;44.97;76.71;;
53702;Laerm;39594;52.194;9.886;2023-02-01T09:38:53;62.98;43.54;76.15;;
53702;Laerm;39594;52.194;9.886;2023-02-01T09:44:36;62.20;43.94;76.06;;
53702;Laerm;39594;52.194;9.886;2023-02-01T09:46:41;62.33;45.30;79.42;;
53702;Laerm;39594;52.194;9.886;2023-02-01T09:49:10;66.16;46.38;83.29;;
53702;Laerm;39594;52.194;9.886;2023-02-01T09:51:37;66.70;47.02;84.57;;
53702;Laerm;39594;52.194;9.886;2023-02-01T09:54:11;66.92;46.89;81.22;;
53702;Laerm;39594;52.194;9.886;2023-02-01T10:01:46;64.42;48.42;78.22;;
53702;Laerm;39594;52.194;9.886;2023-02-01T10:04:12;66.05;48.51;80.14;;
53702;Laerm;39594;52.194;9.886;2023-02-01T10:07:24;64.30;46.89;81.51;;
53702;Laerm;39594;52.194;9.886;2023-02-01T10:12:02;66.06;46.18;80.20;;
53702;Laerm;39594;52.194;9.886;2023-02-01T10:17:08;69.36;51.48;83.53;;
53702;Laerm;39594;52.194;9.886;2023-02-01T10:19:40;62.98;48.00;77.07;;
53702;Laerm;39594;52.194;9.886;2023-02-01T10:22:08;64.62;46.05;80.69;;
53702;Laerm;39594;52.194;9.886;2023-02-01T10:24:39;69.65;49.50;85.66;;
53702;Laerm;39594;52.194;9.886;2023-02-01T10:29:37;62.33;45.43;78.36;;
53702;Laerm;39594;52.194;9.886;2023-02-01T10:32:07;66.09;47.18;84.88;;
53702;Laerm;39594;52.194;9.886;2023-02-01T10:34:34;63.72;47.28;76.87;;
53702;Laerm;39594;52.194;9.886;2023-02-01T10:37:07;61.93;46.76;73.78;;
53702;Laerm;39594;52.194;9.886;2023-02-01T10:39:35;65.51;45.23;84.56;;
53702;Laerm;39594;52.194;9.886;2023-02-01T10:42:01;66.52;50.45;82.46;;
53702;Laerm;39594;52.194;9.886;2023-02-01T10:44:28;65.96;49.59;85.85;;
53702;Laerm;39594;52.194;9.886;2023-02-01T10:46:55;65.37;50.01;79.55;;
53702;Laerm;39594;52.194;9.886;2023-02-01T10:51:58;64.42;45.17;80.53;;
53702;Laerm;39594;52.194;9.886;2023-02-01T10:54:32;63.77;47.00;79.47;;
53702;Laerm;39594;52.194;9.886;2023-02-01T10:56:58;65.93;48.10;80.68;;
53702;Laerm;39594;52.194;9.886;2023-02-01T10:59:24;64.65;48.83;79.80;;
53702;Laerm;39594;52.194;9.886;2023-02-01T11:01:49;64.40;47.72;83.70;;
53702;Laerm;39594;52.194;9.886;2023-02-01T11:06:41;64.14;46.05;76.61;;
53702;Laerm;39594;52.194;9.886;2023-02-01T11:16:47;63.74;45.45;80.43;;
53702;Laerm;39594;52.194;9.886;2023-02-01T11:19:14;63.44;43.09;79.71;;
53702;Laerm;39594;52.194;9.886;2023-02-01T11:21:39;63.16;44.90;72.85;;
53702;Laerm;39594;52.194;9.886;2023-02-01T11:24:06;62.68;43.72;75.34;;
53702;Laerm;39594;52.194;9.886;2023-02-01T11:26:39;63.75;43.29;80.33;;
53702;Laerm;39594;52.194;9.886;2023-02-01T11:29:08;60.23;42.03;72.51;;
53702;Laerm;39594;52.194;9.886;2023-02-01T11:31:35;62.72;43.14;73.34;;
53702;Laerm;39594;52.194;9.886;2023-02-01T11:34:22;62.19;42.88;73.15;;
53702;Laerm;39594;52.194;9.886;2023-02-01T11:36:46;61.00;42.82;73.10;;
53702;Laerm;39594;52.194;9.886;2023-02-01T11:41:56;67.53;43.63;79.59;;
53702;Laerm;39594;52.194;9.886;2023-02-01T11:44:30;61.14;41.75;74.90;;
53702;Laerm;39594;52.194;9.886;2023-02-01T11:46:55;64.45;41.68;82.53;;
53702;Laerm;39594;52.194;9.886;2023-02-01T11:49:22;64.30;41.82;80.44;;
53702;Laerm;39594;52.194;9.886;2023-02-01T11:57:17;65.60;45.66;79.48;;
53702;Laerm;39594;52.194;9.886;2023-02-01T11:59:49;66.17;45.45;81.42;;
53702;Laerm;39594;52.194;9.886;2023-02-01T12:03:04;62.74;43.94;75.72;;
53702;Laerm;39594;52.194;9.886;2023-02-01T12:10:25;64.19;41.75;77.38;;
53702;Laerm;39594;52.194;9.886;2023-02-01T12:13:41;63.34;42.16;73.50;;
53702;Laerm;39594;52.194;9.886;2023-02-01T12:16:00;62.49;43.34;73.99;;
53702;Laerm;39594;52.194;9.886;2023-02-01T12:19:04;61.48;42.93;72.52;;
53702;Laerm;39594;52.194;9.886;2023-02-01T12:26:42;59.46;42.09;73.80;;
53702;Laerm;39594;52.194;9.886;2023-02-01T12:29:18;64.39;43.99;76.88;;
53702;Laerm;39594;52.194;9.886;2023-02-01T12:31:49;66.38;48.48;77.93;;
53702;Laerm;39594;52.194;9.886;2023-02-01T12:34:45;66.62;45.60;83.12;;
53702;Laerm;39594;52.194;9.886;2023-02-01T12:44:34;65.39;46.76;79.31;;
53702;Laerm;39594;52.194;9.886;2023-02-01T12:47:06;62.38;48.39;76.40;;
53702;Laerm;39594;52.194;9.886;2023-02-01T12:52:16;67.87;50.10;86.69;;
53702;Laerm;39594;52.194;9.886;2023-02-01T12:57:23;64.80;47.96;77.97;;
53702;Laerm;39594;52.194;9.886;2023-02-01T12:59:59;67.19;48.39;80.60;;
53702;Laerm;39594;52.194;9.886;2023-02-01T13:02:28;65.68;48.28;82.23;;
53702;Laerm;39594;52.194;9.886;2023-02-01T13:07:25;66.62;48.12;81.21;;
53702;Laerm;39594;52.194;9.886;2023-02-01T13:10:02;65.72;46.45;79.91;;
53702;Laerm;39594;52.194;9.886;2023-02-01T13:12:34;67.67;47.90;81.91;;
53702;Laerm;39594;52.194;9.886;2023-02-01T13:15:03;67.83;47.57;87.15;;
53702;Laerm;39594;52.194;9.886;2023-02-01T13:17:31;67.80;47.12;80.54;;
53702;Laerm;39594;52.194;9.886;2023-02-01T13:19:58;65.79;48.98;82.10;;
53702;Laerm;39594;52.194;9.886;2023-02-01T13:22:29;67.14;50.30;85.04;;
53702;Laerm;39594;52.194;9.886;2023-02-01T13:25:10;68.62;50.25;81.19;;
53702;Laerm;39594;52.194;9.886;2023-02-01T13:27:37;65.13;49.08;76.86;;
53702;Laerm;39594;52.194;9.886;2023-02-01T13:42:50;65.18;47.22;76.13;;
53702;Laerm;39594;52.194;9.886;2023-02-01T13:45:17;66.98;53.69;86.69;;
53702;Laerm;39594;52.194;9.886;2023-02-01T13:47:45;68.84;51.20;84.49;;
53702;Laerm;39594;52.194;9.886;2023-02-01T13:52:51;68.21;47.04;78.11;;
53702;Laerm;39594;52.194;9.886;2023-02-01T13:57:45;68.27;48.95;82.25;;
53702;Laerm;39594;52.194;9.886;2023-02-01T14:00:27;79.62;59.42;95.09;;
53702;Laerm;39594;52.194;9.886;2023-02-01T14:08:14;71.48;53.99;83.18;;
53702;Laerm;39594;52.194;9.886;2023-02-01T14:10:56;70.40;53.93;81.67;;
53702;Laerm;39594;52.194;9.886;2023-02-01T14:16:12;68.84;49.98;78.95;;
53702;Laerm;39594;52.194;9.886;2023-02-01T14:21:18;70.55;47.96;81.99;;
53702;Laerm;39594;52.194;9.886;2023-02-01T14:23:48;69.86;48.69;81.28;;
53702;Laerm;39594;52.194;9.886;2023-02-01T14:31:17;68.30;49.08;78.48;;
53702;Laerm;39594;52.194;9.886;2023-02-01T14:33:49;70.80;52.41;80.65;;
53702;Laerm;39594;52.194;9.886;2023-02-01T14:36:14;70.44;54.80;81.84;;
53702;Laerm;39594;52.194;9.886;2023-02-01T14:38:39;70.55;55.82;85.28;;
53702;Laerm;39594;52.194;9.886;2023-02-01T14:44:36;69.27;50.95;82.27;;
53702;Laerm;39594;52.194;9.886;2023-02-01T14:49:48;70.10;52.00;85.94;;
53702;Laerm;39594;52.194;9.886;2023-02-01T14:52:15;70.65;49.77;84.02;;
53702;Laerm;39594;52.194;9.886;2023-02-01T14:54:42;69.47;49.91;86.30;;
53702;Laerm;39594;52.194;9.886;2023-02-01T14:57:18;69.89;50.87;83.40;;
53702;Laerm;39594;52.194;9.886;2023-02-01T14:59:45;71.34;52.36;84.91;;
53702;Laerm;39594;52.194;9.886;2023-02-01T15:02:43;68.77;51.88;82.04;;
53702;Laerm;39594;52.194;9.886;2023-02-01T15:05:12;68.52;52.86;79.85;;
53702;Laerm;39594;52.194;9.886;2023-02-01T15:07:45;69.92;51.16;80.65;;
53702;Laerm;39594;52.194;9.886;2023-02-01T15:10:11;70.12;54.31;81.93;;
53702;Laerm;39594;52.194;9.886;2023-02-01T15:12:37;69.92;53.01;86.50;;
53702;Laerm;39594;52.194;9.886;2023-02-01T15:15:15;71.24;52.00;87.95;;
53702;Laerm;39594;52.194;9.886;2023-02-01T15:17:42;71.52;50.75;86.57;;
53702;Laerm;39594;52.194;9.886;2023-02-01T15:20:18;71.16;50.98;86.41;;
53702;Laerm;39594;52.194;9.886;2023-02-01T15:25:20;68.18;47.72;77.67;;
53702;Laerm;39594;52.194;9.886;2023-02-01T15:27:46;68.26;48.25;82.40;;
53702;Laerm;39594;52.194;9.886;2023-02-01T15:30:22;66.68;48.48;81.30;;
53702;Laerm;39594;52.194;9.886;2023-02-01T15:32:48;67.26;45.39;77.95;;
53702;Laerm;39594;52.194;9.886;2023-02-01T15:40:53;66.80;46.45;80.82;;
53702;Laerm;39594;52.194;9.886;2023-02-01T15:43:18;64.41;44.76;74.82;;
53702;Laerm;39594;52.194;9.886;2023-02-01T15:45:43;64.60;44.15;74.85;;
53702;Laerm;39594;52.194;9.886;2023-02-01T15:48:11;68.19;46.57;81.89;;
53702;Laerm;39594;52.194;9.886;2023-02-01T15:50:39;64.62;43.90;75.19;;
53702;Laerm;39594;52.194;9.886;2023-02-01T15:53:05;62.43;43.04;75.21;;
53702;Laerm;39594;52.194;9.886;2023-02-01T15:55:39;62.85;42.88;74.89;;
53702;Laerm;39594;52.194;9.886;2023-02-01T15:58:06;67.28;45.04;79.49;;
53702;Laerm;39594;52.194;9.886;2023-02-01T16:00:35;65.78;46.69;74.43;;
53702;Laerm;39594;52.194;9.886;2023-02-01T16:03:15;64.24;43.72;74.17;;
53702;Laerm;39594;52.194;9.886;2023-02-01T16:05:53;65.21;48.25;76.61;;
53702;Laerm;39594;52.194;9.886;2023-02-01T16:08:26;64.23;43.94;73.68;;
53702;Laerm;39594;52.194;9.886;2023-02-01T16:10:52;64.45;45.11;74.33;;
53702;Laerm;39594;52.194;9.886;2023-02-01T16:13:18;67.03;45.20;80.11;;
53702;Laerm;39594;52.194;9.886;2023-02-01T16:15:44;66.66;47.93;75.43;;